createdAt,value
2017-10-03T00:00:34.009Z,96.66
2017-10-03T00:01:34.035Z,96.47
2017-10-03T00:02:34.055Z,96.18
2017-10-03T00:03:34.076Z,96.27
2017-10-03T00:04:34.099Z,96.56
2017-10-03T00:05:34.116Z,96.27
2017-10-03T00:06:34.163Z,96.18
2017-10-03T00:07:34.159Z,97.04
2017-10-03T00:08:34.187Z,97.14
2017-10-03T00:09:34.202Z,97.61
2017-10-03T00:10:34.229Z,97.14
2017-10-03T00:11:34.250Z,96.84
2017-10-03T00:12:34.581Z,97.14
2017-10-03T00:13:34.291Z,97.42
2017-10-03T00:14:34.313Z,97.33
2017-10-03T00:15:34.335Z,97.14
2017-10-03T00:16:34.415Z,98
2017-10-03T00:17:34.378Z,97.14
2017-10-03T00:18:34.403Z,97.14
2017-10-03T00:19:34.422Z,97.42
2017-10-03T00:20:34.452Z,97.14
2017-10-03T00:21:34.481Z,96.66
2017-10-03T00:22:34.493Z,96.84
2017-10-03T00:23:34.510Z,97.14
2017-10-03T00:24:34.531Z,96.84
2017-10-03T00:25:34.867Z,97.33
2017-10-03T00:26:34.579Z,97.52
2017-10-03T00:27:34.599Z,97.8
2017-10-03T00:28:34.623Z,98.19
2017-10-03T00:29:34.649Z,98.1
2017-10-03T00:30:34.670Z,98.67
2017-10-03T00:31:34.743Z,98.38
2017-10-03T00:32:34.708Z,99.34
2017-10-03T00:33:34.728Z,99.05
2017-10-03T00:34:34.753Z,99.43
2017-10-03T00:35:34.771Z,99.63
2017-10-03T00:36:34.799Z,99.63
2017-10-03T00:37:34.814Z,99.99
2017-10-03T00:38:35.146Z,99.99
2017-10-03T00:39:34.865Z,99.99
2017-10-03T00:40:34.897Z,99.99
2017-10-03T00:41:35.210Z,99.99
2017-10-03T00:42:34.922Z,99.99
2017-10-03T00:43:34.943Z,99.99
2017-10-03T00:44:34.989Z,99.99
2017-10-03T00:45:34.986Z,99.99
2017-10-03T00:46:35.019Z,99.99
2017-10-03T00:47:35.037Z,99.99
2017-10-03T00:48:35.075Z,99.99
2017-10-03T00:49:35.072Z,99.99
2017-10-03T00:50:35.154Z,99.99
2017-10-03T00:51:35.119Z,99.99
2017-10-03T00:52:35.136Z,99.99
2017-10-03T00:53:35.470Z,99.99
2017-10-03T00:54:35.178Z,99.99
2017-10-03T00:55:35.204Z,99.99
2017-10-03T00:56:35.221Z,99.99
2017-10-03T00:57:35.248Z,99.99
2017-10-03T00:58:35.265Z,99.99
2017-10-03T00:59:35.292Z,99.99
2017-10-03T01:00:35.308Z,99.99
2017-10-03T01:01:35.640Z,99.99
2017-10-03T01:02:35.669Z,99.91
2017-10-03T01:03:35.372Z,99.99
2017-10-03T01:04:35.397Z,99.58
2017-10-03T01:05:35.417Z,99.99
2017-10-03T01:06:35.448Z,99.99
2017-10-03T01:07:35.562Z,99.63
2017-10-03T01:08:35.479Z,99.72
2017-10-03T01:09:35.506Z,99.63
2017-10-03T01:10:35.522Z,99.99
2017-10-03T01:11:35.543Z,99.99
2017-10-03T01:12:35.571Z,99.43
2017-10-03T01:13:35.587Z,99.91
2017-10-03T01:14:35.609Z,99.53
2017-10-03T01:15:35.636Z,99.24
2017-10-03T01:16:35.651Z,99.34
2017-10-03T01:17:35.678Z,99.34
2017-10-03T01:18:35.696Z,99.43
2017-10-03T01:19:35.729Z,99.99
2017-10-03T01:20:35.740Z,99.15
2017-10-03T01:21:35.760Z,99.34
2017-10-03T01:22:35.828Z,99.99
2017-10-03T01:23:35.803Z,99.99
2017-10-03T01:24:35.825Z,99.53
2017-10-03T01:25:35.845Z,99.53
2017-10-03T01:26:35.866Z,99.53
2017-10-03T01:27:35.891Z,99.53
2017-10-03T01:28:35.912Z,99.15
2017-10-03T01:29:35.946Z,99.24
2017-10-03T01:30:35.957Z,99.43
2017-10-03T01:31:36.634Z,99.05
2017-10-03T01:32:36.096Z,99.34
2017-10-03T01:33:36.019Z,99.15
2017-10-03T01:34:36.039Z,98.86
2017-10-03T01:35:36.060Z,99.63
2017-10-03T01:36:36.083Z,99.99
2017-10-03T01:37:36.163Z,99.15
2017-10-03T01:38:36.130Z,99.15
2017-10-03T01:39:36.148Z,99.63
2017-10-03T01:40:36.481Z,99.43
2017-10-03T01:41:36.190Z,99.63
2017-10-03T01:42:36.216Z,98.38
2017-10-03T01:43:36.233Z,98.38
2017-10-03T01:44:36.254Z,98.86
2017-10-03T01:45:36.293Z,99.43
2017-10-03T01:46:36.303Z,99.34
2017-10-03T01:47:36.320Z,98.86
2017-10-03T01:48:36.341Z,99.34
2017-10-03T01:49:36.364Z,99.15
2017-10-03T01:50:36.387Z,99.15
2017-10-03T01:51:36.407Z,99.43
2017-10-03T01:52:36.446Z,99.43
2017-10-03T01:53:36.453Z,99.34
2017-10-03T01:54:36.523Z,99.63
2017-10-03T01:55:36.495Z,99.24
2017-10-03T01:56:36.521Z,99.34
2017-10-03T01:57:36.543Z,99.15
2017-10-03T01:58:36.568Z,99.91
2017-10-03T01:59:36.579Z,99.43
2017-10-03T02:00:36.604Z,99.53
2017-10-03T02:01:36.626Z,99.43
2017-10-03T02:02:36.653Z,99.43
2017-10-03T02:03:36.667Z,99.34
2017-10-03T02:04:36.693Z,99.34
2017-10-03T02:05:36.716Z,99.43
2017-10-03T02:06:36.734Z,99.53
2017-10-03T02:07:36.755Z,99.43
2017-10-03T02:08:36.778Z,99.91
2017-10-03T02:09:36.798Z,99.34
2017-10-03T02:10:36.819Z,99.82
2017-10-03T02:11:37.150Z,99.99
2017-10-03T02:12:37.176Z,99.15
2017-10-03T02:13:36.884Z,99.34
2017-10-03T02:14:36.911Z,99.24
2017-10-03T02:15:36.952Z,99.24
2017-10-03T02:16:36.949Z,99.53
2017-10-03T02:17:36.997Z,98.67
2017-10-03T02:18:36.998Z,99.15
2017-10-03T02:19:37.016Z,99.34
2017-10-03T02:20:37.034Z,98.86
2017-10-03T02:21:37.057Z,99.99
2017-10-03T02:22:37.089Z,99.53
2017-10-03T02:23:37.101Z,99.53
2017-10-03T02:24:37.124Z,99.63
2017-10-03T02:25:37.459Z,99.99
2017-10-03T02:26:37.166Z,99.82
2017-10-03T02:27:38.238Z,99.43
2017-10-03T02:28:37.207Z,99.43
2017-10-03T02:29:37.231Z,99.34
2017-10-03T02:30:37.255Z,99.43
2017-10-03T02:31:37.293Z,99.72
2017-10-03T02:32:37.297Z,99.99
2017-10-03T02:33:37.316Z,99.24
2017-10-03T02:34:37.660Z,99.15
2017-10-03T02:35:37.361Z,99.53
2017-10-03T02:36:37.383Z,99.24
2017-10-03T02:37:37.463Z,99.24
2017-10-03T02:38:37.426Z,99.34
2017-10-03T02:39:37.453Z,99.39
2017-10-03T02:40:37.470Z,99.48
2017-10-03T02:41:37.498Z,99.43
2017-10-03T02:42:39.918Z,99.34
2017-10-03T02:43:37.541Z,99.34
2017-10-03T02:44:37.558Z,99.72
2017-10-03T02:45:37.580Z,99.34
2017-10-03T02:46:37.602Z,98.57
2017-10-03T02:47:37.622Z,99.24
2017-10-03T02:48:37.645Z,98.86
2017-10-03T02:49:37.986Z,99.58
2017-10-03T02:50:37.693Z,99.39
2017-10-03T02:51:37.712Z,98.52
2017-10-03T02:52:37.733Z,98.33
2017-10-03T02:53:37.766Z,98.52
2017-10-03T02:54:37.783Z,99.48
2017-10-03T02:55:37.805Z,98.62
2017-10-03T02:56:37.822Z,98.19
2017-10-03T02:57:37.845Z,98
2017-10-03T02:58:37.914Z,97.23
2017-10-03T02:59:37.890Z,97.42
2017-10-03T03:00:37.909Z,97.28
2017-10-03T03:01:37.934Z,97.18
2017-10-03T03:02:37.955Z,97.09
2017-10-03T03:03:37.977Z,97.85
2017-10-03T03:04:38.010Z,97.28
2017-10-03T03:05:38.025Z,97.52
2017-10-03T03:06:38.044Z,97.28
2017-10-03T03:07:38.070Z,96.85
2017-10-03T03:08:38.102Z,97.14
2017-10-03T03:09:38.110Z,97.23
2017-10-03T03:10:38.136Z,96.66
2017-10-03T03:11:38.157Z,96.42
2017-10-03T03:12:38.178Z,97.09
2017-10-03T03:13:38.251Z,96.99
2017-10-03T03:14:38.226Z,97.09
2017-10-03T03:15:38.245Z,96.99
2017-10-03T03:16:38.269Z,97.47
2017-10-03T03:17:38.294Z,97.09
2017-10-03T03:18:38.317Z,96.8
2017-10-03T03:19:38.340Z,96.89
2017-10-03T03:20:38.359Z,96.99
2017-10-03T03:21:38.383Z,97.18
2017-10-03T03:22:38.723Z,97.33
2017-10-03T03:23:38.433Z,96.51
2017-10-03T03:24:38.459Z,97.38
2017-10-03T03:25:38.472Z,97.28
2017-10-03T03:26:38.491Z,96.89
2017-10-03T03:27:38.515Z,96.99
2017-10-03T03:28:38.586Z,96.42
2017-10-03T03:29:38.557Z,97.47
2017-10-03T03:30:38.904Z,97.47
2017-10-03T03:31:38.604Z,96.7
2017-10-03T03:32:38.629Z,96.89
2017-10-03T03:33:38.654Z,96.51
2017-10-03T03:34:38.981Z,96.42
2017-10-03T03:35:38.694Z,96.61
2017-10-03T03:36:38.717Z,97.09
2017-10-03T03:37:38.736Z,97.28
2017-10-03T03:38:38.761Z,97.47
2017-10-03T03:39:38.788Z,96.89
2017-10-03T03:40:38.807Z,96.42
2017-10-03T03:41:38.827Z,95.65
2017-10-03T03:42:38.850Z,96.42
2017-10-03T03:43:38.871Z,96.61
2017-10-03T03:44:38.899Z,96.32
2017-10-03T03:45:38.918Z,96.51
2017-10-03T03:46:38.939Z,97.09
2017-10-03T03:47:39.061Z,97.09
2017-10-03T03:48:39.001Z,97.47
2017-10-03T03:49:39.007Z,97.09
2017-10-03T03:50:39.030Z,96.61
2017-10-03T03:51:39.050Z,96.8
2017-10-03T03:52:39.074Z,96.8
2017-10-03T03:53:39.098Z,96.13
2017-10-03T03:54:39.118Z,96.51
2017-10-03T03:55:39.142Z,96.32
2017-10-03T03:56:39.161Z,96.03
2017-10-03T03:57:39.185Z,96.32
2017-10-03T03:58:39.205Z,96.32
2017-10-03T03:59:39.228Z,96.51
2017-10-03T04:00:39.251Z,96.51
2017-10-03T04:01:39.276Z,96.8
2017-10-03T04:02:39.346Z,96.13
2017-10-03T04:03:39.316Z,97.09
2017-10-03T04:04:39.339Z,96.32
2017-10-03T04:05:39.378Z,96.99
2017-10-03T04:06:39.389Z,97.09
2017-10-03T04:07:39.407Z,96.51
2017-10-03T04:08:39.438Z,96.99
2017-10-03T04:09:39.452Z,97.04
2017-10-03T04:10:39.476Z,97.23
2017-10-03T04:11:39.503Z,97.23
2017-10-03T04:12:39.520Z,98.1
2017-10-03T04:13:39.542Z,97.14
2017-10-03T04:14:39.563Z,97.71
2017-10-03T04:15:39.584Z,96.94
2017-10-03T04:16:39.611Z,98
2017-10-03T04:17:39.630Z,97.8
2017-10-03T04:18:39.701Z,97.71
2017-10-03T04:19:39.674Z,98.24
2017-10-03T04:20:39.698Z,98
2017-10-03T04:21:39.716Z,97.33
2017-10-03T04:22:39.741Z,97.52
2017-10-03T04:23:39.761Z,96.84
2017-10-03T04:24:39.783Z,97.42
2017-10-03T04:25:39.806Z,96.89
2017-10-03T04:26:39.826Z,96.99
2017-10-03T04:27:39.855Z,97.23
2017-10-03T04:28:39.874Z,97.33
2017-10-03T04:29:39.893Z,96.94
2017-10-03T04:30:39.917Z,96.99
2017-10-03T04:31:39.939Z,97.66
2017-10-03T04:32:39.958Z,97.42
2017-10-03T04:33:40.033Z,97.42
2017-10-03T04:34:40.008Z,97.23
2017-10-03T04:35:40.026Z,97.8
2017-10-03T04:36:40.048Z,98.05
2017-10-03T04:37:40.069Z,97.28
2017-10-03T04:38:40.100Z,96.99
2017-10-03T04:39:40.116Z,96.99
2017-10-03T04:40:40.135Z,97.38
2017-10-03T04:41:40.158Z,97.47
2017-10-03T04:42:40.179Z,97.28
2017-10-03T04:43:40.207Z,97.28
2017-10-03T04:44:40.225Z,97.28
2017-10-03T04:45:40.247Z,97.38
2017-10-03T04:46:40.271Z,96.8
2017-10-03T04:47:40.289Z,96.99
2017-10-03T04:48:40.310Z,97.09
2017-10-03T04:49:40.334Z,97.09
2017-10-03T04:50:40.414Z,96.8
2017-10-03T04:51:40.386Z,96.61
2017-10-03T04:52:40.424Z,96.42
2017-10-03T04:53:40.752Z,96.42
2017-10-03T04:54:40.474Z,96.89
2017-10-03T04:55:40.779Z,96.22
2017-10-03T04:56:40.491Z,96.7
2017-10-03T04:57:40.512Z,96.7
2017-10-03T04:58:40.533Z,96.32
2017-10-03T04:59:40.554Z,95.65
2017-10-03T05:00:40.886Z,95.94
2017-10-03T05:01:40.602Z,96.03
2017-10-03T05:02:40.633Z,95.65
2017-10-03T05:03:40.644Z,95.75
2017-10-03T05:04:40.685Z,95.94
2017-10-03T05:05:40.694Z,95.94
2017-10-03T05:06:40.766Z,95.56
2017-10-03T05:07:40.735Z,95.75
2017-10-03T05:08:40.762Z,95.89
2017-10-03T05:09:40.775Z,95.94
2017-10-03T05:10:40.805Z,94.93
2017-10-03T05:11:41.129Z,95.56
2017-10-03T05:12:40.846Z,95.41
2017-10-03T05:13:40.872Z,95.31
2017-10-03T05:14:40.891Z,95.6
2017-10-03T05:15:40.911Z,95.17
2017-10-03T05:16:40.934Z,95.21
2017-10-03T05:17:40.958Z,95.36
2017-10-03T05:18:40.980Z,95.26
2017-10-03T05:19:40.998Z,94.64
2017-10-03T05:20:41.030Z,95.26
2017-10-03T05:21:41.043Z,94.5
2017-10-03T05:22:41.068Z,94.79
2017-10-03T05:23:41.297Z,95.17
2017-10-03T05:24:41.116Z,95.03
2017-10-03T05:25:41.135Z,94.4
2017-10-03T05:26:41.157Z,94.74
2017-10-03T05:27:41.190Z,94.69
2017-10-03T05:28:41.200Z,94.89
2017-10-03T05:29:41.221Z,94.69
2017-10-03T05:30:41.555Z,94.69
2017-10-03T05:31:41.274Z,94.45
2017-10-03T05:32:41.291Z,94.64
2017-10-03T05:33:41.315Z,94.74
2017-10-03T05:34:41.333Z,94.26
2017-10-03T05:35:41.354Z,94.07
2017-10-03T05:36:41.378Z,93.97
2017-10-03T05:37:41.714Z,94.17
2017-10-03T05:38:41.420Z,94.54
2017-10-03T05:39:41.494Z,93.78
2017-10-03T05:40:41.466Z,93.88
2017-10-03T05:41:41.492Z,93.78
2017-10-03T05:42:41.509Z,93.3
2017-10-03T05:43:41.531Z,93.88
2017-10-03T05:44:41.560Z,93.3
2017-10-03T05:45:41.579Z,93.21
2017-10-03T05:46:41.598Z,92.91
2017-10-03T05:47:41.627Z,92.91
2017-10-03T05:48:41.646Z,93.11
2017-10-03T05:49:41.667Z,93.21
2017-10-03T05:50:41.696Z,92.91
2017-10-03T05:51:41.709Z,92.91
2017-10-03T05:52:41.737Z,93.11
2017-10-03T05:53:41.753Z,92.91
2017-10-03T05:54:41.779Z,93.01
2017-10-03T05:55:41.803Z,92.91
2017-10-03T05:56:42.131Z,93.01
2017-10-03T05:57:41.899Z,93.4
2017-10-03T05:58:41.871Z,93.21
2017-10-03T05:59:42.201Z,93.01
2017-10-03T06:00:41.911Z,92.82
2017-10-03T06:01:41.934Z,93.11
2017-10-03T06:02:41.960Z,93.21
2017-10-03T06:03:41.982Z,93.01
2017-10-03T06:04:42.002Z,93.3
2017-10-03T06:05:42.027Z,93.11
2017-10-03T06:06:42.045Z,92.91
2017-10-03T06:07:42.067Z,93.11
2017-10-03T06:08:42.093Z,93.21
2017-10-03T06:09:42.121Z,93.78
2017-10-03T06:10:42.140Z,93.59
2017-10-03T06:11:42.163Z,93.3
2017-10-03T06:12:42.229Z,93.88
2017-10-03T06:13:42.204Z,93.4
2017-10-03T06:14:42.239Z,93.54
2017-10-03T06:15:42.266Z,93.68
2017-10-03T06:16:42.276Z,93.35
2017-10-03T06:17:42.607Z,93.92
2017-10-03T06:18:42.318Z,93.63
2017-10-03T06:19:42.337Z,93.35
2017-10-03T06:20:42.364Z,94.02
2017-10-03T06:21:42.382Z,93.73
2017-10-03T06:22:42.408Z,94.74
2017-10-03T06:23:42.433Z,95.12
2017-10-03T06:24:42.455Z,96.08
2017-10-03T06:25:42.781Z,95.98
2017-10-03T06:26:42.498Z,96.27
2017-10-03T06:27:42.518Z,96.66
2017-10-03T06:28:42.540Z,96.27
2017-10-03T06:29:42.564Z,96.85
2017-10-03T06:30:42.589Z,97.04
2017-10-03T06:31:42.660Z,95.89
2017-10-03T06:32:42.630Z,98.47
2017-10-03T06:33:42.653Z,99.99
2017-10-03T06:34:42.678Z,99.99
2017-10-03T06:35:42.695Z,99.99
2017-10-03T06:36:42.723Z,99.99
2017-10-03T06:37:42.747Z,99.99
2017-10-03T06:38:43.076Z,99.99
2017-10-03T06:39:42.782Z,99.99
2017-10-03T06:40:42.816Z,99.99
2017-10-03T06:41:42.828Z,99.99
2017-10-03T06:42:42.862Z,99.99
2017-10-03T06:43:42.869Z,99.99
2017-10-03T06:44:42.888Z,99.99
2017-10-03T06:45:42.911Z,99.99
2017-10-03T06:46:42.981Z,99.99
2017-10-03T06:47:42.950Z,99.99
2017-10-03T06:48:42.973Z,99.99
2017-10-03T06:49:42.992Z,99.99
2017-10-03T06:50:43.010Z,99.99
2017-10-03T06:51:43.031Z,99.99
2017-10-03T06:52:43.164Z,99.99
2017-10-03T06:53:43.082Z,99.99
2017-10-03T06:54:43.091Z,99.99
2017-10-03T06:55:43.112Z,99.99
2017-10-03T06:56:43.133Z,99.99
2017-10-03T06:57:43.153Z,99.99
2017-10-03T06:58:43.177Z,99.99
2017-10-03T06:59:43.199Z,99.99
2017-10-03T07:00:43.216Z,99.99
2017-10-03T07:01:43.287Z,99.99
2017-10-03T07:02:43.261Z,99.99
2017-10-03T07:03:43.275Z,99.99
2017-10-03T07:04:43.293Z,99.99
2017-10-03T07:05:43.338Z,99.99
2017-10-03T07:06:43.335Z,99.99
2017-10-03T07:07:43.353Z,99.99
2017-10-03T07:08:43.375Z,99.99
2017-10-03T07:09:43.394Z,99.99
2017-10-03T07:10:43.415Z,99.99
2017-10-03T07:11:43.436Z,99.99
2017-10-03T07:12:43.460Z,99.99
2017-10-03T07:13:43.479Z,99.99
2017-10-03T07:14:43.496Z,99.99
2017-10-03T07:15:43.524Z,99.99
2017-10-03T07:16:43.585Z,99.99
2017-10-03T07:17:43.558Z,99.99
2017-10-03T07:18:43.574Z,99.99
2017-10-03T07:19:43.595Z,99.99
2017-10-03T07:20:43.616Z,99.99
2017-10-03T07:21:43.634Z,99.99
2017-10-03T07:22:43.657Z,99.99
2017-10-03T07:23:43.673Z,99.99
2017-10-03T07:24:43.692Z,99.99
2017-10-03T07:25:43.716Z,99.99
2017-10-03T07:26:43.739Z,99.99
2017-10-03T07:27:43.754Z,99.99
2017-10-03T07:28:43.779Z,99.99
2017-10-03T07:29:44.109Z,99.99
2017-10-03T07:30:43.814Z,99.99
2017-10-03T07:31:44.142Z,99.99
2017-10-03T07:32:44.058Z,99.99
2017-10-03T07:33:44.186Z,99.99
2017-10-03T07:34:43.897Z,99.99
2017-10-03T07:35:43.915Z,99.99
2017-10-03T07:36:43.933Z,99.99
2017-10-03T07:37:43.957Z,99.99
2017-10-03T07:38:43.977Z,99.99
2017-10-03T07:39:43.995Z,99.99
2017-10-03T07:40:44.012Z,99.99
2017-10-03T07:41:44.038Z,99.99
2017-10-03T07:42:44.053Z,99.99
2017-10-03T07:43:44.079Z,99.99
2017-10-03T07:44:44.105Z,99.99
2017-10-03T07:45:44.116Z,99.99
2017-10-03T07:46:44.140Z,99.99
2017-10-03T07:47:44.161Z,99.99
2017-10-03T07:48:44.224Z,99.99
2017-10-03T07:49:44.197Z,99.99
2017-10-03T07:50:44.216Z,99.99
2017-10-03T07:51:44.235Z,99.99
2017-10-03T07:52:44.270Z,99.99
2017-10-03T07:53:44.271Z,99.99
2017-10-03T07:54:44.297Z,99.99
2017-10-03T07:55:44.318Z,99.99
2017-10-03T07:56:44.328Z,99.99
2017-10-03T07:57:44.356Z,99.99
2017-10-03T07:58:44.371Z,99.99
2017-10-03T07:59:44.391Z,99.99
2017-10-03T08:00:44.412Z,99.99
2017-10-03T08:01:44.433Z,99.99
2017-10-03T08:02:44.450Z,99.99
2017-10-03T08:03:44.475Z,99.99
2017-10-03T08:04:44.491Z,99.99
2017-10-03T08:05:44.563Z,99.99
2017-10-03T08:06:44.533Z,99.99
2017-10-03T08:07:44.559Z,99.99
2017-10-03T08:08:44.572Z,99.99
2017-10-03T08:09:44.642Z,99.99
2017-10-03T08:10:44.614Z,99.99
2017-10-03T08:11:44.632Z,99.99
2017-10-03T08:12:44.651Z,99.99
2017-10-03T08:13:44.670Z,99.99
2017-10-03T08:14:44.692Z,99.99
2017-10-03T08:15:44.715Z,99.99
2017-10-03T08:16:44.732Z,99.99
2017-10-03T08:17:44.754Z,99.99
2017-10-03T08:18:44.776Z,99.99
2017-10-03T08:19:44.792Z,99.99
2017-10-03T08:20:44.814Z,99.99
2017-10-03T08:21:44.830Z,99.99
2017-10-03T08:22:44.850Z,99.99
2017-10-03T08:23:44.879Z,99.99
2017-10-03T08:24:44.903Z,99.99
2017-10-03T08:25:44.924Z,99.99
2017-10-03T08:26:44.936Z,99.99
2017-10-03T08:27:44.956Z,99.99
2017-10-03T08:28:44.976Z,99.99
2017-10-03T08:29:45.006Z,99.99
2017-10-03T08:30:45.010Z,99.99
2017-10-03T08:31:45.030Z,99.99
2017-10-03T08:32:45.053Z,99.99
2017-10-03T08:33:45.073Z,99.99
2017-10-03T08:34:45.090Z,99.99
2017-10-03T08:35:45.109Z,99.99
2017-10-03T08:36:45.132Z,99.99
2017-10-03T08:37:45.461Z,99.99
2017-10-03T08:38:45.532Z,99.99
2017-10-03T08:39:45.189Z,99.99
2017-10-03T08:40:45.211Z,99.99
2017-10-03T08:41:45.231Z,99.99
2017-10-03T08:42:45.252Z,99.99
2017-10-03T08:43:45.275Z,99.99
2017-10-03T08:44:45.293Z,99.99
2017-10-03T08:45:45.307Z,99.99
2017-10-03T08:46:45.529Z,99.99
2017-10-03T08:47:45.347Z,99.8
2017-10-03T08:48:45.369Z,99.99
2017-10-03T08:49:45.392Z,99.99
2017-10-03T08:50:45.407Z,99.99
2017-10-03T08:51:45.425Z,99.99
2017-10-03T08:52:45.587Z,99.99
2017-10-03T08:53:46.340Z,99.99
2017-10-03T08:54:46.408Z,99.99
2017-10-03T08:55:46.146Z,99.99
2017-10-03T08:56:45.975Z,99.99
2017-10-03T08:57:45.676Z,99.99
2017-10-03T08:58:46.634Z,99.99
2017-10-03T08:59:46.019Z,99.99
2017-10-03T09:00:46.870Z,99.99
2017-10-03T09:01:46.145Z,99.99
2017-10-03T09:02:46.222Z,99.99
2017-10-03T09:03:46.188Z,99.99
2017-10-03T09:04:47.919Z,99.99
2017-10-03T09:05:46.195Z,99.99
2017-10-03T09:06:46.648Z,99.99
2017-10-03T09:07:45.811Z,99.99
2017-10-03T09:08:45.840Z,99.99
2017-10-03T09:09:46.159Z,99.99
2017-10-03T09:10:47.094Z,99.99
2017-10-03T09:11:45.982Z,99.99
2017-10-03T09:12:46.388Z,99.99
2017-10-03T09:13:46.267Z,99.99
2017-10-03T09:14:45.882Z,99.99
2017-10-03T09:15:45.912Z,99.99
2017-10-03T09:16:45.912Z,99.99
2017-10-03T09:17:46.278Z,99.99
2017-10-03T09:18:45.954Z,99.99
2017-10-03T09:19:45.970Z,99.99
2017-10-03T09:20:45.993Z,99.99
2017-10-03T09:21:46.006Z,99.99
2017-10-03T09:22:46.026Z,99.99
2017-10-03T09:23:46.044Z,99.99
2017-10-03T09:24:46.065Z,99.99
2017-10-03T09:25:46.084Z,99.99
2017-10-03T09:26:46.158Z,99.99
2017-10-03T09:27:46.459Z,99.99
2017-10-03T09:28:46.138Z,99.99
2017-10-03T09:29:46.159Z,99.99
2017-10-03T09:30:46.414Z,99.99
2017-10-03T09:31:46.200Z,99.99
2017-10-03T09:32:46.212Z,99.99
2017-10-03T09:33:46.236Z,99.99
2017-10-03T09:34:46.251Z,99.99
2017-10-03T09:35:46.268Z,99.99
2017-10-03T09:36:46.480Z,99.99
2017-10-03T09:37:46.310Z,99.99
2017-10-03T09:38:46.328Z,99.99
2017-10-03T09:39:46.477Z,99.99
2017-10-03T09:40:46.367Z,99.99
2017-10-03T09:41:46.581Z,99.99
2017-10-03T09:42:46.646Z,99.99
2017-10-03T09:43:46.979Z,99.99
2017-10-03T09:44:46.628Z,99.99
2017-10-03T09:45:46.627Z,99.99
2017-10-03T09:46:46.853Z,99.99
2017-10-03T09:47:46.847Z,99.99
2017-10-03T09:48:46.737Z,99.99
2017-10-03T09:49:46.772Z,99.99
2017-10-03T09:50:46.742Z,99.99
2017-10-03T09:51:46.721Z,99.99
2017-10-03T09:52:46.904Z,99.99
2017-10-03T09:53:46.839Z,99.99
2017-10-03T09:54:46.922Z,99.99
2017-10-03T09:55:47.077Z,99.99
2017-10-03T09:56:46.787Z,99.99
2017-10-03T09:57:47.000Z,99.99
2017-10-03T09:58:46.932Z,99.99
2017-10-03T09:59:47.381Z,99.99
2017-10-03T10:00:47.870Z,99.99
2017-10-03T10:01:47.386Z,99.99
2017-10-03T10:02:47.151Z,99.99
2017-10-03T10:03:47.142Z,99.99
2017-10-03T10:04:46.962Z,99.99
2017-10-03T10:05:47.097Z,99.99
2017-10-03T10:06:47.007Z,99.99
2017-10-03T10:07:47.152Z,99.99
2017-10-03T10:08:47.153Z,99.99
2017-10-03T10:09:47.199Z,99.99
2017-10-03T10:10:47.273Z,99.99
2017-10-03T10:11:47.172Z,99.99
2017-10-03T10:12:46.977Z,99.99
2017-10-03T10:13:47.082Z,99.99
2017-10-03T10:14:47.011Z,99.99
2017-10-03T10:15:47.185Z,99.99
2017-10-03T10:16:47.089Z,99.99
2017-10-03T10:17:47.074Z,99.99
2017-10-03T10:18:47.090Z,99.99
2017-10-03T10:19:47.114Z,99.99
2017-10-03T10:20:47.129Z,99.99
2017-10-03T10:21:47.146Z,99.99
2017-10-03T10:22:47.166Z,99.99
2017-10-03T10:23:47.185Z,99.99
2017-10-03T10:24:47.211Z,99.99
2017-10-03T10:25:47.532Z,99.99
2017-10-03T10:26:47.241Z,99.99
2017-10-03T10:27:47.264Z,99.99
2017-10-03T10:28:47.281Z,99.99
2017-10-03T10:29:47.305Z,99.99
2017-10-03T10:30:47.370Z,99.99
2017-10-03T10:31:47.348Z,99.99
2017-10-03T10:32:47.360Z,99.99
2017-10-03T10:33:47.385Z,99.99
2017-10-03T10:34:47.407Z,99.99
2017-10-03T10:35:47.417Z,99.99
2017-10-03T10:36:47.442Z,99.99
2017-10-03T10:37:47.473Z,99.99
2017-10-03T10:38:47.491Z,99.99
2017-10-03T10:39:47.816Z,99.99
2017-10-03T10:40:47.521Z,99.99
2017-10-03T10:41:47.535Z,99.99
2017-10-03T10:42:47.561Z,99.99
2017-10-03T10:43:47.576Z,99.99
2017-10-03T10:44:47.595Z,99.99
2017-10-03T10:45:47.975Z,99.99
2017-10-03T10:46:47.676Z,99.99
2017-10-03T10:47:47.659Z,99.99
2017-10-03T10:48:47.679Z,98.52
2017-10-03T10:49:47.697Z,99.1
2017-10-03T10:50:47.723Z,99.96
2017-10-03T10:51:47.743Z,97.18
2017-10-03T10:52:47.802Z,97.18
2017-10-03T10:53:47.779Z,97.18
2017-10-03T10:54:47.806Z,98.28
2017-10-03T10:55:47.821Z,98.66
2017-10-03T10:56:47.858Z,99.81
2017-10-03T10:57:47.864Z,99.99
2017-10-03T10:58:47.887Z,99.99
2017-10-03T10:59:47.917Z,96.27
2017-10-03T11:00:47.996Z,96.47
2017-10-03T11:01:47.983Z,95.89
2017-10-03T11:02:47.975Z,96.27
2017-10-03T11:03:48.848Z,97.56
2017-10-03T11:04:48.351Z,94.6
2017-10-03T11:05:48.098Z,93.35
2017-10-03T11:06:48.112Z,94.89
2017-10-03T11:07:48.483Z,95.07
2017-10-03T11:08:48.197Z,94.98
2017-10-03T11:09:48.519Z,95.36
2017-10-03T11:10:48.162Z,94.69
2017-10-03T11:11:48.184Z,93.83
2017-10-03T11:12:48.391Z,92.78
2017-10-03T11:13:48.319Z,93.93
2017-10-03T11:14:48.302Z,92.78
2017-10-03T11:15:48.327Z,92.78
2017-10-03T11:16:48.394Z,93.59
2017-10-03T11:17:48.314Z,94.21
2017-10-03T11:18:48.445Z,93.64
2017-10-03T11:19:48.496Z,92.92
2017-10-03T11:20:48.637Z,93.69
2017-10-03T11:21:48.467Z,93.88
2017-10-03T11:22:48.433Z,92.97
2017-10-03T11:23:48.488Z,92.78
2017-10-03T11:24:48.685Z,91.72
2017-10-03T11:25:48.682Z,92.63
2017-10-03T11:26:48.672Z,91.87
2017-10-03T11:27:48.598Z,91.49
2017-10-03T11:28:48.553Z,92.97
2017-10-03T11:29:48.678Z,92.88
2017-10-03T11:30:48.643Z,93.26
2017-10-03T11:31:48.713Z,92.4
2017-10-03T11:32:48.965Z,92.97
2017-10-03T11:33:49.145Z,92.97
2017-10-03T11:34:48.682Z,92.4
2017-10-03T11:35:48.918Z,90.82
2017-10-03T11:36:48.768Z,91.11
2017-10-03T11:37:48.910Z,90.67
2017-10-03T11:38:51.032Z,88.56
2017-10-03T11:39:48.849Z,87.99
2017-10-03T11:40:49.318Z,87.8
2017-10-03T11:41:48.990Z,87.9
2017-10-03T11:42:48.900Z,88.81
2017-10-03T11:43:48.886Z,90.77
2017-10-03T11:44:49.032Z,91.16
2017-10-03T11:45:48.933Z,93.84
2017-10-03T11:46:51.689Z,93.55
2017-10-03T11:47:48.994Z,94.02
2017-10-03T11:48:49.125Z,93.07
2017-10-03T11:49:49.285Z,94.7
2017-10-03T11:50:49.686Z,92.69
2017-10-03T11:51:49.134Z,94.41
2017-10-03T11:52:49.091Z,93.5
2017-10-03T11:53:49.433Z,93.45
2017-10-03T11:54:49.911Z,93.84
2017-10-03T11:55:49.553Z,93.93
2017-10-03T11:56:49.404Z,92.73
2017-10-03T11:57:49.407Z,91.39
2017-10-03T11:58:49.209Z,90.86
2017-10-03T11:59:49.417Z,89.33
2017-10-03T12:00:49.309Z,87.99
2017-10-03T12:01:49.347Z,89.33
2017-10-03T12:02:49.516Z,86.94
2017-10-03T12:03:49.345Z,87.03
2017-10-03T12:04:49.404Z,87.7
2017-10-03T12:05:49.436Z,90.67
2017-10-03T12:06:50.609Z,88.23
2017-10-03T12:07:50.640Z,84.53
2017-10-03T12:08:49.560Z,83.23
2017-10-03T12:09:49.463Z,82.7
2017-10-03T12:10:49.662Z,80.58
2017-10-03T12:11:49.652Z,80.73
2017-10-03T12:12:49.528Z,78.21
2017-10-03T12:13:49.988Z,76.04
2017-10-03T12:14:49.731Z,74.63
2017-10-03T12:15:49.676Z,71.69
2017-10-03T12:16:49.632Z,70.09
2017-10-03T12:17:49.663Z,67.07
2017-10-03T12:18:49.685Z,65.63
2017-10-03T12:19:49.717Z,64.12
2017-10-03T12:20:49.743Z,62.32
2017-10-03T12:21:49.770Z,64.15
2017-10-03T12:22:49.849Z,64.43
2017-10-03T12:23:49.829Z,65.27
2017-10-03T12:24:49.854Z,61.45
2017-10-03T12:25:49.882Z,63.67
2017-10-03T12:26:49.912Z,62.35
2017-10-03T12:27:49.940Z,60.42
2017-10-03T12:28:49.972Z,58.97
2017-10-03T12:29:49.997Z,58.27
2017-10-03T12:30:50.024Z,59.08
2017-10-03T12:31:50.056Z,60.24
2017-10-03T12:32:50.093Z,61.71
2017-10-03T12:33:50.109Z,63.89
2017-10-03T12:34:50.133Z,64.63
2017-10-03T12:35:50.508Z,66.61
2017-10-03T12:36:50.187Z,66.42
2017-10-03T12:37:50.216Z,66.52
2017-10-03T12:38:50.242Z,66.61
2017-10-03T12:39:50.269Z,67.29
2017-10-03T12:40:50.369Z,67.83
2017-10-03T12:41:50.639Z,67.73
2017-10-03T12:42:50.347Z,68.98
2017-10-03T12:43:50.373Z,69.23
2017-10-03T12:44:50.394Z,68.59
2017-10-03T12:45:50.425Z,66.13
2017-10-03T12:46:50.459Z,67.76
2017-10-03T12:47:50.470Z,66.61
2017-10-03T12:48:50.493Z,67.86
2017-10-03T12:49:50.518Z,68.66
2017-10-03T12:50:50.551Z,66.3
2017-10-03T12:51:50.882Z,61.91
2017-10-03T12:52:50.640Z,61
2017-10-03T12:53:50.629Z,60.81
2017-10-03T12:54:51.070Z,58.4